Latest Coastal Weather Observations for Hobart Airport

IDT60701

Issued at 12:45 am EDT Sunday 26 October 2014 (issued every 10 minutes, with the page automatically refreshed every 10 minutes)

About coastal observations | Map of coastal stations | Coastal observations for TAS | Marine services | Other Formats
Station Details ID: 094008 Name: HOBART AIRPORT Lat: -42.83 Lon: 147.50 Height: 4.0 m
Data from the previous 72 hours. | See also: Recent months at Hobart Airport
Date/Time
EDT
Temp

°C
Wind Pressure Rain
since 9am
mm
Weather Cloud Vis
km
Sea
Height
m
Swell
Dir
 
Speed
knots
Gust
knots
hPa Trend Height
m
Period
s
Dir
26/12:30am 9.7 ENE 3 4 1018.2 - 2.0 Rain Mostly clear 8 - - - -
26/12:00am 10.1 ENE 0 0 1018.5 R 1.2 Rain Cloudy 6 - - - -
 
Date/Time
EDT
Temp

°C
Wind Pressure Rain
since 9am
mm
Weather Cloud Vis
km
Sea
Height
m
Swell
Dir
 
Speed
knots
Gust
knots
hPa Trend Height
m
Period
s
Dir
25/11:51pm 10.4 ENE 1 3 1018.5 - 0.6 Rain Cloudy 5 - - - -
25/11:36pm 10.7 ENE 4 5 1018.2 - 0.0 Rain Cloudy 6 - - - -
25/11:30pm 11.0 E 4 6 1018.1 - 0.0 Rain Cloudy 10 - - - -
25/11:00pm 11.2 SE 4 5 1017.8 - 0.0 - Mostly cloudy 10 - - - -
25/10:30pm 11.4 E 5 7 1017.9 - 0.0 - Mostly cloudy 10 - - - -
25/10:00pm 11.4 S 5 6 1018.5 - 0.0 - Mostly cloudy 10 - - - -
25/09:30pm 11.3 SE 5 7 1018.3 - 0.0 - Partly cloudy 10 - - - -
25/09:00pm 11.5 ESE 6 8 1018.4 F 0.0 Haze Mostly cloudy 20 - - - -
25/08:30pm 11.8 SSE 7 11 1018.4 - 0.0 - Mostly cloudy 10 - - - -
25/08:00pm 12.0 SSE 12 15 1017.8 - 0.0 - Mostly cloudy 10 - - - -
25/07:30pm 12.1 S 14 17 1017.8 - 0.0 - Mostly cloudy 10 - - - -
25/07:00pm 12.2 S 15 20 1017.4 - 0.0 - Mostly clear 10 - - - -
25/06:30pm 12.4 S 15 19 1017.1 - 0.0 - Mostly clear 10 - - - -
25/06:00pm 12.8 S 15 19 1017.0 R 0.0 Haze Mostly cloudy 20 - - - -
25/05:30pm 13.0 S 16 20 1016.6 - 0.0 - Mostly clear 10 - - - -
25/05:00pm 13.5 SSE 17 22 1016.5 - 0.0 - Mostly clear 10 - - - -
25/04:30pm 14.2 SSE 17 21 1016.3 - 0.0 - Mostly clear 10 - - - -
25/04:00pm 14.9 SSE 17 21 1016.4 - 0.0 - Mostly clear 10 - - - -
25/03:30pm 14.3 S 19 24 1016.3 - 0.0 - Mostly clear 10 - - - -
25/03:00pm 15.3 SSE 18 22 1016.3 R 0.0 Fine Mostly cloudy 40 - - - -
25/02:30pm 14.8 S 19 24 1016.3 - 0.0 - Mostly clear 10 - - - -
25/02:00pm 15.3 SSE 20 26 1016.4 - 0.0 - Mostly clear 10 - - - -
25/01:30pm 15.0 SSE 21 27 1016.2 - 0.0 - Mostly clear 10 - - - -
25/01:00pm 15.5 SSE 17 20 1016.0 - 0.0 - Mostly clear 10 - - - -
25/12:30pm 15.5 SE 13 19 1015.8 - 0.0 - Mostly clear 10 - - - -
25/12:00pm 16.6 SE 14 18 1016.1 R 0.0 Fine Mostly cloudy 40 - - - -
25/11:30am 16.5 SSE 15 19 1015.9 - 0.0 - Mostly clear 10 - - - -
25/11:00am 15.1 SSE 15 20 1015.7 - 0.0 - Mostly clear 10 - - - -
25/10:30am 16.2 SSE 16 18 1015.7 - 0.0 - Mostly clear 10 - - - -
25/10:00am 15.9 SSE 15 18 1015.4 - 0.0 - Mostly clear 10 - - - -
25/09:30am 16.1 SE 12 17 1015.3 - 0.0 - Mostly clear 10 - - - -
25/09:00am 14.9 SE 8 10 1015.4 R 0.0 Fine Mostly cloudy 40 - - - -
25/08:30am 14.4 S 9 11 1015.1 - 0.0 - Mostly clear 10 - - - -
25/08:00am 14.5 SSW 7 13 1014.6 - 0.0 - Mostly clear 10 - - - -
25/07:30am 14.1 S 9 15 1014.1 - 0.0 - Mostly clear 10 - - - -
25/07:00am 14.0 S 4 5 1013.5 - 0.0 - Mostly clear 10 - - - -
25/06:30am 13.8 SSW 5 7 1012.9 - 0.0 - Mostly clear 10 - - - -
25/06:00am 13.4 SE 5 7 1012.5 R 0.0 Fine Mostly cloudy 30 - - - -
25/05:30am 13.5 SW 3 4 1012.0 - 0.0 - Mostly clear 10 - - - -
25/05:00am 14.1 S 8 10 1011.4 - 0.0 - Mostly clear 10 - - - -
25/04:30am 13.7 SSE 7 8 1010.9 - 0.0 - Mostly cloudy 10 - - - -
25/04:00am 13.3 SSE 6 8 1010.5 - 0.0 - Mostly cloudy 10 - - - -
25/03:30am 12.5 NNE 2 4 1010.0 - 0.0 - Mostly cloudy 10 - - - -
25/03:00am 13.0 SSE 5 7 1009.9 R 0.0 Fine Mostly cloudy 30 - - - -
25/02:30am 11.3 CALM 0 2 1009.5 - 0.0 - Mostly clear 10 - - - -
25/02:00am 12.2 NNE 3 6 1009.1 - 0.0 - Mostly clear 10 - - - -
25/01:30am 14.1 W 4 5 1009.0 - 0.0 - Mostly clear 10 - - - -
25/01:00am 14.8 SSW 6 8 1009.3 - 0.0 - Mostly clear 10 - - - -
25/12:30am 14.9 SSE 2 6 1009.1 - 0.0 - Mostly clear 10 - - - -
25/12:00am 15.4 SSE 4 6 1008.8 F 0.0 Fine Partly cloudy 30 - - - -
 
Date/Time
EDT
Temp

°C
Wind Pressure Rain
since 9am
mm
Weather Cloud Vis
km
Sea
Height
m
Swell
Dir
 
Speed
knots
Gust
knots
hPa Trend Height
m
Period
s
Dir
24/11:30pm 16.0 NW 5 6 1008.6 - 0.0 - Partly cloudy 10 - - - -
24/11:00pm 16.0 N 7 8 1008.3 - 0.0 - Cloudy 10 - - - -
24/10:30pm 16.7 NNW 4 7 1008.3 - 0.0 - Cloudy 10 - - - -
24/10:00pm 16.6 N 5 7 1008.3 - 0.0 - - 10 - - - -
24/09:30pm 16.3 NE 7 9 1008.4 - 0.0 - - 10 - - - -
24/09:00pm 16.6 NNE 7 10 1008.9 F 0.0 Haze Partly cloudy 25 - - - -
24/08:30pm 16.8 NNE 7 8 1008.4 - 0.0 - Mostly clear 10 - - - -
24/08:00pm 16.9 NNE 9 11 1008.1 - 0.0 - Mostly clear 10 - - - -
24/07:30pm 16.6 NE 8 12 1008.0 - 0.0 - Mostly clear 10 - - - -
24/07:00pm 16.7 NE 10 14 1008.2 - 0.0 - Mostly clear 10 - - - -
24/06:30pm 16.8 NE 10 14 1008.9 - 0.0 - Mostly clear 10 - - - -
24/06:00pm 17.0 NE 15 18 1009.3 F 0.0 Haze Mostly cloudy 25 - - - -
24/05:30pm 16.9 NE 13 18 1009.7 - 0.0 - Mostly clear 10 - - - -
24/05:00pm 17.3 NE 14 20 1009.7 - 0.0 - Mostly clear 10 - - - -
24/04:30pm 17.6 NE 12 15 1010.0 - 0.0 - Mostly clear 10 - - - -
24/04:00pm 17.8 NE 13 16 1010.6 - 0.0 - Mostly clear 10 - - - -
24/03:30pm 17.0 NE 12 16 1011.3 - 0.0 - Mostly clear 10 - - - -
24/03:00pm 16.8 NE 11 15 1011.9 F 0.0 Haze Mostly cloudy 30 - - - -
24/02:30pm 17.0 NNE 11 14 1012.6 - 0.0 - Mostly clear 10 - - - -
24/02:00pm 17.3 NE 12 16 1013.2 - 0.0 - Mostly clear 10 - - - -
24/01:30pm 16.8 ENE 9 14 1013.8 - 0.0 - Mostly clear 10 - - - -
24/01:00pm 16.5 NE 11 15 1014.6 - 0.0 - Mostly clear 10 - - - -
24/12:30pm 16.4 NE 12 18 1015.2 - 0.0 - Mostly cloudy 10 - - - -
24/12:00pm 16.7 NE 12 16 1015.8 F 0.0 Haze Mostly cloudy 25 - - - -
24/11:30am 15.8 NNE 10 14 1016.6 - 0.0 - Mostly cloudy 10 - - - -
24/11:00am 15.4 NNE 11 18 1017.0 - 0.0 - Mostly cloudy 10 - - - -
24/10:30am 14.9 NNE 10 16 1017.4 - 0.0 - Mostly cloudy 10 - - - -
24/10:00am 12.7 NNW 6 9 1018.1 - 0.0 - Mostly cloudy 10 - - - -
24/09:30am 11.5 NW 8 10 1018.5 - 0.0 - Mostly cloudy 10 - - - -
24/09:00am 10.0 NW 7 8 1019.3 F 0.0 Haze Mostly cloudy 10 - - - -
24/08:30am 9.4 NW 10 13 1020.0 - 0.0 - Mostly cloudy 9 - - - -
24/08:00am 9.1 NW 7 9 1020.3 - 0.0 - Mostly cloudy 10 - - - -
24/07:30am 7.3 NW 9 11 1020.6 - 0.0 - Mostly cloudy 10 - - - -
24/07:00am 6.3 NW 9 11 1020.7 - 0.0 - Mostly cloudy 10 - - - -
24/06:30am 5.5 NW 5 7 1020.9 - 0.0 - Partly cloudy 10 - - - -
24/06:00am 5.6 NW 8 9 1021.2 F 0.0 Haze Partly cloudy 15 - - - -
24/05:30am 5.8 NW 8 10 1021.4 - 0.0 - Partly cloudy 10 - - - -
24/05:00am 5.7 NW 8 9 1021.5 - 0.0 - Mostly clear 10 - - - -
24/04:30am 5.7 NW 6 9 1021.9 - 0.0 - Mostly clear 10 - - - -
24/04:00am 5.6 NW 4 6 1022.1 - 0.0 - Partly cloudy 10 - - - -
24/03:30am 6.5 NNW 5 7 1022.9 - 0.0 - Partly cloudy 10 - - - -
24/03:00am 6.9 NW 7 8 1023.3 F 0.0 Haze Mostly clear 15 - - - -
24/02:30am 6.1 WNW 6 7 1023.5 - 0.0 - Mostly clear 10 - - - -
24/02:00am 7.3 N 6 7 1023.9 - 0.0 - Partly cloudy 10 - - - -
24/01:30am 8.0 NNW 6 7 1024.3 - 0.0 - Partly cloudy 10 - - - -
24/01:00am 8.0 N 5 6 1024.8 - 0.0 - - 10 - - - -
24/12:30am 7.9 N 6 7 1024.8 - 0.0 - - 10 - - - -
24/12:00am 9.5 N 6 7 1025.2 F 0.0 Haze Mostly clear 20 - - - -
 
Date/Time
EDT
Temp

°C
Wind Pressure Rain
since 9am
mm
Weather Cloud Vis
km
Sea
Height
m
Swell
Dir
 
Speed
knots
Gust
knots
hPa Trend Height
m
Period
s
Dir
23/11:30pm 9.3 N 6 8 1025.4 - 0.0 - - 10 - - - -
23/11:00pm 10.1 N 7 9 1025.6 - 0.0 - - 10 - - - -
23/10:30pm 10.1 NE 11 15 1025.2 - 0.0 - - 10 - - - -
23/10:00pm 10.7 NE 11 16 1025.5 - 0.0 - - 10 - - - -
23/09:30pm 10.7 NE 11 15 1025.8 - 0.0 - - 10 - - - -
23/09:00pm 10.7 NE 9 14 1026.0 F 0.0 Haze Clear 20 - - - -
23/08:30pm 11.1 NE 11 15 1026.0 - 0.0 - - 10 - - - -
23/08:00pm 11.1 E 8 11 1025.8 - 0.0 - - 10 - - - -
23/07:30pm 11.6 E 8 13 1025.7 - 0.0 - - 10 - - - -
23/07:00pm 12.3 E 9 14 1025.3 - 0.0 - - 10 - - - -
23/06:30pm 13.2 ESE 9 13 1025.1 - 0.0 - - 10 - - - -
23/06:00pm 13.5 ESE 8 14 1025.0 F 0.0 Haze Mostly clear 20 - - - -
23/05:30pm 14.2 ESE 9 15 1024.9 - 0.0 - Mostly clear 10 - - - -
23/05:00pm 14.8 SE 10 15 1024.8 - 0.0 - Mostly clear 10 - - - -
23/04:30pm 14.8 SSE 12 16 1024.8 - 0.0 - Mostly clear 10 - - - -
23/04:00pm 13.8 SSE 14 17 1024.9 - 0.0 - Mostly clear 10 - - - -
23/03:30pm 14.5 SSE 12 16 1024.9 - 0.0 - Mostly clear 10 - - - -
23/03:00pm 14.6 SSE 11 15 1025.0 S 0.0 Haze Mostly clear 20 - - - -
23/02:30pm 14.5 SSE 11 14 1025.3 - 0.0 - Mostly clear 10 - - - -
23/02:00pm 14.8 SSE 11 17 1025.4 - 0.0 - Mostly clear 10 - - - -
23/01:30pm 14.9 S 12 16 1025.4 - 0.0 - Mostly clear 10 - - - -
23/01:00pm 14.9 S 12 15 1025.5 - 0.0 - Mostly clear 10 - - - -
23/12:30pm 14.0 S 10 15 1025.8 - 0.0 - Mostly clear 10 - - - -
23/12:00pm 13.8 S 9 13 1026.2 R 0.0 Haze Mostly clear 20 - - - -
23/11:30am 13.8 S 9 12 1026.4 - 0.0 - Partly cloudy 10 - - - -
23/11:00am 13.2 S 9 14 1026.7 - 0.0 - Mostly cloudy 10 - - - -
23/10:30am 12.8 S 10 15 1026.6 - 0.0 - Mostly cloudy 10 - - - -
23/10:00am 12.6 SSE 8 13 1026.6 - 0.0 - Mostly cloudy 10 - - - -
23/09:30am 12.4 SSE 10 14 1026.4 - 0.0 - Mostly cloudy 10 - - - -
23/09:00am 11.8 S 12 16 1026.3 R 0.0 Haze Mostly cloudy 20 - - - -
23/08:30am 12.0 SSE 13 19 1026.0 - 0.0 - Mostly cloudy 10 - - - -
23/08:00am 11.7 S 9 14 1025.6 - 0.0 - Mostly cloudy 10 - - - -
23/07:30am 11.4 SSW 11 15 1025.2 - 0.0 - Mostly cloudy 10 - - - -
23/07:00am 11.3 S 13 18 1024.7 - 0.0 - Mostly cloudy 10 - - - -
23/06:30am 11.1 S 13 19 1024.1 - 0.0 - Mostly clear 10 - - - -
23/06:00am 11.2 S 13 17 1023.7 R 0.0 Haze Mostly cloudy 25 - - - -
23/05:30am 11.3 S 11 18 1023.2 - 0.0 - Mostly cloudy 10 - - - -
23/05:00am 11.1 S 14 18 1022.8 - 0.0 - Mostly cloudy 10 - - - -
23/04:30am 11.5 S 13 16 1022.5 - 0.0 - Mostly cloudy 10 - - - -
23/04:00am 11.7 S 15 20 1022.1 - 0.0 - Mostly cloudy 10 - - - -
23/03:30am 11.6 S 17 23 1022.2 - 0.0 - Mostly cloudy 10 - - - -
23/03:00am 11.8 S 15 21 1022.0 R 0.0 Fine Mostly cloudy 40 - - - -
23/02:30am 11.9 S 15 20 1022.0 - 0.0 - Mostly cloudy 10 - - - -
23/02:00am 12.3 S 14 21 1021.8 - 0.0 - Mostly cloudy 10 - - - -
23/01:30am 12.8 S 15 18 1021.6 - 0.0 - Mostly cloudy 10 - - - -
23/01:00am 13.1 S 13 19 1021.5 - 0.0 - Mostly clear 10 - - - -

Other Formats:

Comma delimited format used in spreadsheet applications
http://www.bom.gov.au/fwo/IDT60701/IDT60701.94975.axf

JavaScript Object Notation format (JSON) in row-major order
http://www.bom.gov.au/fwo/IDT60701/IDT60701.94975.json